Data for 10/23/2017

Time Sea-Level Adjusted Pressure Absolute Pressure Temperature Relative Humidity Dew Point   
(mb) (inHg) (mb) (inHg) (C) (F) (%) (C) (F)
00:05 1027 30.33 857 25.31 6 42.7 45 -5.1 22.8
00:10 1028 30.36 857 25.31 5.9 42.5 44 -5.4 22.3
00:15 1028 30.36 857 25.31 5.9 42.6 44 -5.6 22
00:20 1028 30.36 857 25.31 5.9 42.6 43 -5.8 21.6
00:25 1028 30.36 857 25.31 5.9 42.7 42 -6 21.2
00:30 1028 30.36 857 25.31 6 42.8 41 -6.3 20.6
00:35 1028 30.36 857 25.31 6 42.8 40 -6.4 20.4
00:40 1028 30.36 857 25.31 6.1 42.9 41 -6.4 20.6
00:45 1028 30.36 857 25.31 6 42.8 40 -6.5 20.2
00:50 1028 30.36 857 25.31 6.1 42.9 40 -6.6 20
00:55 1028 30.36 857 25.31 6.1 43 38 -7.2 19
01:00 1028 30.36 857 25.31 6.2 43.1 37 -7.3 18.9
01:05 1028 30.36 857 25.31 6.1 43 39 -6.9 19.5
01:10 1028 30.36 857 25.31 6 42.7 38 -7.1 19.2
01:15 1028 30.36 857 25.31 5.9 42.7 39 -7.1 19.2
01:20 1028 30.36 857 25.31 5.9 42.6 39 -7 19.4
01:25 1028 30.36 857 25.31 5.7 42.3 42 -6.3 20.6
01:30 1028 30.36 857 25.31 5.4 41.7 43 -6.3 20.6
01:35 1028 30.36 857 25.31 5.3 41.6 43 -6.3 20.6
01:40 1028 30.36 857 25.31 5.3 41.5 42 -6.5 20.3
01:45 1028 30.36 857 25.31 5.3 41.5 42 -6.6 20.1
01:50 1028 30.36 857 25.31 5.2 41.4 42 -6.5 20.2
01:55 1028 30.36 857 25.31 5.1 41.3 42 -6.7 20
02:00 1028 30.36 857 25.31 5.1 41.1 43 -6.5 20.2
02:05 1028 30.36 857 25.31 5 41 42 -6.7 19.9
02:10 1028 30.36 857 25.31 5.2 41.3 42 -6.8 19.7
02:15 1028 30.36 857 25.31 5.4 41.6 41 -6.8 19.7
02:20 1028 30.36 857 25.31 5.4 41.8 41 -6.6 20
02:25 1028 30.36 857 25.31 5.4 41.6 43 -6.3 20.7
02:30 1028 30.36 858 25.34 5.1 41.3 44 -6.2 20.9
02:35 1028 30.36 858 25.34 4.9 40.9 45 -6.1 21
02:40 1028 30.36 858 25.34 4.8 40.7 45 -6 21.1
02:45 1028 30.36 858 25.34 4.9 40.9 46 -5.8 21.6
02:50 1029 30.39 858 25.34 4.9 40.8 46 -5.8 21.6
02:55 1029 30.39 858 25.34 4.9 40.9 47 -5.5 22.1
03:00 1029 30.39 858 25.34 4.7 40.5 48 -5.3 22.4
03:05 1029 30.39 858 25.34 4.6 40.2 48 -5.6 22
03:10 1029 30.39 858 25.34 4.6 40.2 47 -5.7 21.8
03:15 1029 30.39 858 25.34 4.6 40.4 47 -5.6 21.9
03:20 1029 30.39 858 25.34 4.7 40.5 47 -5.7 21.7
03:25 1029 30.39 858 25.34 4.8 40.6 46 -5.8 21.6
03:30 1029 30.39 858 25.34 4.8 40.7 46 -5.7 21.8
03:35 1029 30.39 858 25.34 4.8 40.7 47 -5.6 21.9
03:40 1029 30.39 858 25.34 4.8 40.7 47 -5.6 22
03:45 1029 30.39 858 25.34 4.8 40.6 47 -5.5 22.2
03:50 1029 30.39 858 25.34 4.6 40.3 48 -5.4 22.2
03:55 1029 30.39 858 25.34 4.6 40.3 48 -5.6 22
04:00 1029 30.39 859 25.37 4.8 40.6 47 -5.6 21.9
04:05 1029 30.39 859 25.37 4.8 40.7 47 -5.4 22.2
04:10 1029 30.39 859 25.37 4.8 40.7 47 -5.4 22.2
04:15 1029 30.39 858 25.34 4.8 40.7 48 -5.3 22.4
04:20 1029 30.39 859 25.37 4.8 40.7 47 -5.5 22.2
04:25 1029 30.39 859 25.37 4.8 40.7 48 -5.4 22.3
04:30 1029 30.39 859 25.37 4.9 40.7 47 -5.4 22.3
04:35 1030 30.42 859 25.37 4.9 40.8 44 -6.2 20.8
04:40 1030 30.42 859 25.37 5.2 41.3 44 -6.1 21.1
04:45 1030 30.42 859 25.37 5.2 41.4 44 -6 21.3
04:50 1030 30.42 859 25.37 5.2 41.4 44 -6.1 21.1
04:55 1030 30.42 859 25.37 5.2 41.4 44 -6 21.2
05:00 1030 30.42 859 25.37 5.2 41.4 45 -5.9 21.4
05:05 1030 30.42 859 25.37 5.1 41.2 45 -6 21.3
05:10 1030 30.42 859 25.37 5 41.1 45 -5.9 21.4
05:15 1030 30.42 859 25.37 4.9 40.9 44 -6.2 20.9
05:20 1030 30.42 859 25.37 5 40.9 45 -6.1 21.1
05:25 1030 30.42 859 25.37 5 41 45 -6 21.2
05:30 1030 30.42 859 25.37 5 41 44 -6.2 20.9
05:35 1030 30.42 859 25.37 5.1 41.2 43 -6.6 20.2
05:40 1030 30.42 859 25.37 5.3 41.5 42 -6.5 20.2
05:45 1030 30.42 860 25.4 5.3 41.5 42 -6.6 20.2
05:50 1030 30.42 860 25.4 5.2 41.4 43 -6.4 20.5
05:55 1030 30.42 860 25.4 5.1 41.1 44 -6.3 20.7
06:00 1031 30.45 860 25.4 5 40.9 44 -6.2 20.9
06:05 1031 30.45 860 25.4 4.8 40.7 45 -6.1 21.1
06:10 1031 30.45 860 25.4 4.7 40.5 46 -6 21.1
06:15 1031 30.45 860 25.4 4.7 40.4 46 -6 21.1
06:20 1031 30.45 860 25.4 4.6 40.3 46 -6.1 21.1
06:25 1031 30.45 860 25.4 4.6 40.3 46 -6.1 21
06:30 1031 30.45 860 25.4 4.5 40.2 46 -6 21.2
06:35 1031 30.45 860 25.4 4.3 39.8 48 -5.7 21.7
06:40 1031 30.45 860 25.4 4.1 39.3 48 -6 21.2
06:45 1031 30.45 860 25.4 4.1 39.3 48 -6 21.2
06:50 1031 30.45 860 25.4 4.1 39.4 48 -5.8 21.6
06:55 1031 30.45 860 25.4 4 39.3 48 -5.9 21.4
07:00 1031 30.45 860 25.4 4 39.3 48 -5.9 21.3
07:05 1031 30.45 860 25.4 4.1 39.3 48 -5.9 21.3
07:10 1031 30.45 860 25.4 4.1 39.4 48 -5.9 21.4
07:15 1031 30.45 860 25.4 4.1 39.4 49 -5.7 21.7
07:20 1031 30.45 860 25.4 4 39.3 49 -5.7 21.7
07:25 1031 30.45 860 25.4 4 39.2 49 -5.8 21.6
07:30 1031 30.45 860 25.4 4.1 39.3 49 -5.6 22
07:35 1031 30.45 860 25.4 4.1 39.3 49 -5.6 21.9
07:40 1031 30.45 860 25.4 4.1 39.5 49 -5.6 22
07:45 1031 30.45 861 25.43 4.1 39.4 50 -5.4 22.2
07:50 1031 30.45 861 25.43 3.6 38.6 50 -5.8 21.6
07:55 1031 30.45 861 25.43 3.8 38.8 49 -5.9 21.4
08:00 1031 30.45 861 25.43 4.1 39.5 47 -6.2 20.8
08:05 1032 30.47 861 25.43 4.5 40.1 47 -6 21.2
08:10 1032 30.47 861 25.43 4.6 40.2 46 -6.1 21
08:15 1032 30.47 861 25.43 4.6 40.4 46 -5.9 21.4
08:20 1032 30.47 861 25.43 4.7 40.5 47 -5.7 21.7
08:25 1032 30.47 861 25.43 4.6 40.2 48 -5.6 21.9
08:30 1032 30.47 861 25.43 4.5 40.1 47 -5.8 21.5
08:35 1032 30.47 861 25.43 4.4 40 48 -5.6 22
08:40 1032 30.47 862 25.45 4.2 39.5 48 -5.8 21.5
08:45 1032 30.47 862 25.45 4 39.3 47 -6.3 20.7
08:50 1032 30.47 862 25.45 4.1 39.4 46 -6.4 20.4
08:55 1032 30.47 862 25.45 4.3 39.7 45 -6.6 20.1
09:00 1033 30.5 862 25.45 4.7 40.5 44 -6.5 20.3
09:05 1033 30.5 862 25.45 5.1 41.2 42 -6.7 20
09:10 1033 30.5 862 25.45 5.7 42.3 42 -6.3 20.6
09:15 1033 30.5 862 25.45 6 42.8 42 -6 21.2
09:20 1033 30.5 862 25.45 6.2 43.1 41 -6.1 21
09:25 1033 30.5 862 25.45 6.5 43.6 39 -6.5 20.3
09:30 1033 30.5 862 25.45 6.7 44.1 38 -6.6 20.1
09:35 1033 30.5 862 25.45 6.8 44.3 38 -6.5 20.4
09:40 1033 30.5 862 25.45 7.1 44.8 38 -6.3 20.6
09:45 1033 30.5 862 25.45 7.2 44.9 38 -6.2 20.9
09:50 1033 30.5 863 25.48 7.3 45.1 38 -6.3 20.7
09:55 1033 30.5 863 25.48 7.5 45.5 37 -6.3 20.6
10:00 1034 30.53 863 25.48 7.6 45.6 37 -6.3 20.6
10:05 1034 30.53 863 25.48 7.7 45.9 35 -6.6 20.1
10:10 1034 30.53 863 25.48 7.7 45.9 35 -6.8 19.8
10:15 1034 30.53 863 25.48 7.7 45.9 35 -6.6 20.1
10:20 1034 30.53 863 25.48 7.6 45.7 36 -6.4 20.5
10:25 1034 30.53 863 25.48 7.7 45.9 36 -6.5 20.4
10:30 1034 30.53 863 25.48 7.7 45.8 36 -6.5 20.3
10:35 1034 30.53 863 25.48 8 46.5 35 -6.5 20.4
10:40 1034 30.53 863 25.48 8.2 46.7 34 -6.7 19.9
10:45 1034 30.53 863 25.48 8.5 47.2 34 -6.7 20
10:50 1034 30.53 863 25.48 8.2 46.7 33 -7.2 19
10:55 1034 30.53 863 25.48 8.2 46.8 33 -7.3 18.9
11:00 1034 30.53 863 25.48 8.7 47.6 32 -7.1 19.2
11:05 1034 30.53 863 25.48 9 48.2 30 -7.5 18.5
11:10 1034 30.53 863 25.48 8.9 48.1 30 -7.5 18.5
11:15 1034 30.53 863 25.48 8.9 48 31 -7.5 18.5
11:20 1034 30.53 863 25.48 9.3 48.7 30 -7.5 18.6
11:25 1034 30.53 863 25.48 9.6 49.3 29 -7.6 18.2
11:30 1034 30.53 863 25.48 9.6 49.3 28 -7.9 17.8
11:35 1034 30.53 864 25.51 9.3 48.7 29 -7.7 18.2
11:40 1034 30.53 864 25.51 9.1 48.4 29 -7.8 17.9
11:45 1034 30.53 864 25.51 9.1 48.4 29 -7.9 17.7
11:50 1034 30.53 864 25.51 9.3 48.7 29 -8 17.6
11:55 1034 30.53 864 25.51 9.4 48.9 28 -8.2 17.2
12:00 1034 30.53 864 25.51 9.8 49.6 27 -8.3 17.1
12:05 1034 30.53 864 25.51 9.8 49.6 27 -8.1 17.4
12:10 1034 30.53 864 25.51 9.8 49.6 28 -7.9 17.7
12:15 1034 30.53 864 25.51 10.1 50.1 27 -8.1 17.5
12:20 1034 30.53 864 25.51 9.5 49.1 27 -8.6 16.5
12:25 1034 30.53 864 25.51 9.5 49.1 28 -8.3 17.1
12:30 1034 30.53 864 25.51 9.7 49.4 27 -8.3 17.1
12:35 1034 30.53 864 25.51 9.8 49.6 27 -8.4 17
12:40 1034 30.53 864 25.51 9.6 49.3 28 -8 17.6
12:45 1034 30.53 864 25.51 10 50 27 -8.2 17.2
12:50 1034 30.53 864 25.51 10 50 27 -8.2 17.2
12:55 1035 30.56 864 25.51 10 49.9 27 -8 17.6
13:00 1035 30.56 864 25.51 10.2 50.4 26 -8.6 16.6
13:05 1034 30.53 864 25.51 10.3 50.5 26 -8.2 17.2
13:10 1034 30.53 864 25.51 10.2 50.4 26 -8.2 17.2
13:15 1034 30.53 864 25.51 10.4 50.7 26 -8.3 17.1
13:20 1034 30.53 864 25.51 10.7 51.2 25 -8.7 16.3
13:25 1034 30.53 864 25.51 10.7 51.2 25 -8.5 16.7
13:30 1034 30.53 864 25.51 10.6 51 25 -8.7 16.4
13:35 1034 30.53 864 25.51 10.7 51.3 25 -8.4 16.9
13:40 1035 30.56 864 25.51 10.9 51.7 25 -8.3 17.1
13:45 1035 30.56 864 25.51 11.1 51.9 26 -7.9 17.8
13:50 1035 30.56 864 25.51 11.2 52.2 24 -8.4 16.8
13:55 1035 30.56 864 25.51 11 51.8 25 -8.4 16.9
14:00 1035 30.56 864 25.51 11 51.8 26 -7.9 17.9
14:05 1035 30.56 864 25.51 10.9 51.7 26 -7.9 17.8
14:10 1035 30.56 864 25.51 11.3 52.3 25 -7.9 17.9
14:15 1035 30.56 864 25.51 11.6 52.8 24 -8.2 17.2
14:20 1035 30.56 864 25.51 11.5 52.6 25 -8.1 17.5
14:25 1035 30.56 864 25.51 11.6 52.8 24 -8.1 17.4
14:30 1035 30.56 864 25.51 11.4 52.5 25 -8 17.5
14:35 1035 30.56 864 25.51 11.6 52.9 24 -8.3 17.1
14:40 1035 30.56 864 25.51 11.5 52.7 24 -8.5 16.7
14:45 1035 30.56 864 25.51 11.8 53.2 25 -7.8 17.9
14:50 1035 30.56 864 25.51 11.7 53 26 -7.4 18.6
14:55 1035 30.56 864 25.51 11.7 53.1 24 -8.3 17
15:00 1035 30.56 864 25.51 11.4 52.5 24 -8.3 17.1
15:05 1035 30.56 864 25.51 11.5 52.6 24 -8.2 17.3
15:10 1035 30.56 864 25.51 11.5 52.7 24 -8.5 16.8
15:15 1035 30.56 864 25.51 11.6 52.8 23 -8.7 16.4
15:20 1035 30.56 864 25.51 11.8 53.3 24 -8.3 17.1
15:25 1035 30.56 864 25.51 11.9 53.5 24 -8.2 17.2
15:30 1035 30.56 864 25.51 12.2 53.9 23 -8.1 17.4
15:35 1035 30.56 864 25.51 12.4 54.3 24 -7.9 17.8
15:40 1035 30.56 864 25.51 12 53.6 24 -7.9 17.8
15:45 1035 30.56 864 25.51 11.8 53.2 24 -7.9 17.8
15:50 1035 30.56 864 25.51 12.1 53.8 24 -7.9 17.8
15:55 1035 30.56 864 25.51 12.1 53.7 24 -8 17.6
16:00 1035 30.56 864 25.51 12.1 53.7 23 -8.2 17.3
16:05 1035 30.56 864 25.51 12 53.6 24 -8.1 17.4
16:10 1035 30.56 864 25.51 11.6 52.9 24 -8.4 17
16:15 1035 30.56 864 25.51 11.4 52.6 24 -8.2 17.2
16:20 1035 30.56 864 25.51 11.4 52.6 24 -8.3 17.1
16:25 1035 30.56 864 25.51 11.4 52.4 25 -8.1 17.4
16:30 1035 30.56 864 25.51 11.8 53.2 24 -8.3 17
16:35 1035 30.56 864 25.51 11.9 53.4 24 -8 17.5
16:40 1035 30.56 864 25.51 11.9 53.4 24 -7.9 17.7
16:45 1035 30.56 864 25.51 11.8 53.3 24 -7.9 17.7
16:50 1035 30.56 864 25.51 11.5 52.6 25 -8.1 17.4
16:55 1035 30.56 864 25.51 11.7 53 24 -8 17.6
17:00 1035 30.56 864 25.51 11.6 53 24 -8.1 17.4
17:05 1035 30.56 864 25.51 11.7 53.1 24 -8.3 17.1
17:10 1035 30.56 864 25.51 11.8 53.2 24 -8.2 17.3
17:15 1035 30.56 864 25.51 11.6 53 24 -8.1 17.4
17:20 1035 30.56 864 25.51 11.3 52.4 25 -8.1 17.5
17:25 1035 30.56 864 25.51 11.4 52.4 25 -8.1 17.4
17:30 1035 30.56 864 25.51 11.3 52.3 25 -8 17.5
17:35 1035 30.56 864 25.51 11.2 52.1 25 -8 17.6
17:40 1035 30.56 864 25.51 11.1 52 25 -8 17.6
17:45 1035 30.56 864 25.51 11.2 52.1 25 -8 17.7
17:50 1035 30.56 864 25.51 10.9 51.6 25 -8.1 17.4
17:55 1035 30.56 864 25.51 10.7 51.3 26 -8.1 17.4
18:00 1035 30.56 864 25.51 10.4 50.7 26 -8.1 17.4
18:05 1035 30.56 864 25.51 10.3 50.6 26 -8.1 17.4
18:10 1035 30.56 864 25.51 10.1 50.1 27 -7.9 17.9
18:15 1035 30.56 864 25.51 9.8 49.6 28 -7.8 17.9
18:20 1035 30.56 864 25.51 9.5 49.1 29 -7.8 17.9
18:25 1035 30.56 864 25.51 9.3 48.8 29 -7.7 18.1
18:30 1035 30.56 864 25.51 9.2 48.6 29 -7.7 18.1
18:35 1035 30.56 864 25.51 9 48.3 30 -7.8 18
18:40 1035 30.56 864 25.51 8.9 48 30 -7.7 18.1
18:45 1035 30.56 864 25.51 8.8 47.8 30 -7.7 18.1
18:50 1035 30.56 864 25.51 8.6 47.4 31 -7.7 18.1
18:55 1035 30.56 864 25.51 8.5 47.2 31 -7.9 17.8
19:00 1035 30.56 864 25.51 8.4 47 31 -7.7 18.1
19:05 1035 30.56 864 25.51 8.3 46.9 31 -8 17.6
19:10 1035 30.56 864 25.51 8.2 46.7 32 -7.7 18.1
19:15 1035 30.56 864 25.51 7.6 45.8 35 -6.9 19.6
19:20 1035 30.56 865 25.54 6.7 44.1 37 -7.1 19.2
19:25 1035 30.56 864 25.51 6.4 43.5 37 -7.4 18.7
19:30 1035 30.56 864 25.51 6.2 43.2 37 -7.4 18.7
19:35 1035 30.56 865 25.54 6 42.9 37 -7.6 18.4
19:40 1035 30.56 865 25.54 6 42.8 37 -7.5 18.4
19:45 1035 30.56 865 25.54 6.1 43 36 -8 17.6
19:50 1036 30.59 865 25.54 6.4 43.5 36 -7.7 18.2
19:55 1036 30.59 865 25.54 6.3 43.4 36 -7.8 18
20:00 1036 30.59 865 25.54 6.3 43.4 36 -7.6 18.3
20:05 1036 30.59 865 25.54 6.3 43.4 36 -7.7 18.2
20:10 1036 30.59 865 25.54 6.3 43.3 36 -7.7 18.2
20:15 1036 30.59 865 25.54 6.1 43 37 -7.4 18.7
20:20 1036 30.59 865 25.54 5.6 42 40 -7 19.4
20:25 1036 30.59 865 25.54 5.2 41.4 39 -7.7 18.1
20:30 1036 30.59 865 25.54 5.7 42.3 36 -8 17.6
20:35 1036 30.59 865 25.54 6 42.8 37 -7.5 18.5
20:40 1036 30.59 865 25.54 5.8 42.4 38 -7.6 18.3
20:45 1036 30.59 865 25.54 5.6 42.1 38 -7.4 18.6
20:50 1036 30.59 865 25.54 5.4 41.8 39 -7.4 18.7
20:55 1036 30.59 865 25.54 5.4 41.7 39 -7.5 18.6
21:00 1036 30.59 865 25.54 5.3 41.5 39 -7.4 18.7
21:05 1036 30.59 865 25.54 5.3 41.5 40 -7.4 18.6
21:10 1036 30.59 865 25.54 5.3 41.5 39 -7.7 18.2
21:15 1036 30.59 865 25.54 5.3 41.6 39 -7.5 18.5
21:20 1036 30.59 865 25.54 5.4 41.8 39 -7.3 18.9
21:25 1036 30.59 865 25.54 5.2 41.3 42 -6.7 19.9
21:30 1036 30.59 865 25.54 4.3 39.7 45 -6.6 20.1
21:35 1036 30.59 865 25.54 4.2 39.5 43 -7.2 19.1
21:40 1036 30.59 865 25.54 4.4 40 43 -7.2 19.1